createdAt,value
2023-02-17T00:04:16.007Z,101673.97
2023-02-17T00:09:17.325Z,101658.84
2023-02-17T00:14:18.685Z,101659.03
2023-02-17T00:19:26.051Z,101656.09
2023-02-17T00:24:28.754Z,101652.66
2023-02-17T00:29:30.107Z,101646.81
2023-02-17T00:34:31.607Z,101645.19
2023-02-17T00:39:32.928Z,101635.25
2023-02-17T00:44:34.319Z,101643.25
2023-02-17T00:49:35.755Z,101636.88
2023-02-17T00:54:37.093Z,101640.16
2023-02-17T00:59:38.442Z,101633.28
2023-02-17T01:04:39.857Z,101630.84
2023-02-17T01:09:41.164Z,101628.38
2023-02-17T01:14:42.502Z,101625.59
2023-02-17T01:19:43.801Z,101626.06
2023-02-17T01:24:45.119Z,101630.66
2023-02-17T01:29:46.473Z,101614.34
2023-02-17T01:34:48.996Z,101611.88
2023-02-17T01:39:50.373Z,101601.91
2023-02-17T01:45:10.643Z,101592.75
2023-02-17T01:50:12.007Z,101584.56
2023-02-17T01:55:15.887Z,101575.44
2023-02-17T02:00:18.831Z,101565.81
2023-02-17T02:05:20.792Z,101549.03
2023-02-17T02:10:22.124Z,101551.97
2023-02-17T02:15:25.473Z,101548.44
2023-02-17T02:20:33.076Z,101548.44
2023-02-17T02:25:40.442Z,101535.16
2023-02-17T02:31:00.462Z,101537.59
2023-02-17T02:36:19.725Z,101531.53
2023-02-17T02:41:24.589Z,101542.59
2023-02-17T02:46:25.928Z,101538.72
2023-02-17T02:51:31.145Z,101537.91
2023-02-17T02:56:41.524Z,101537.06
2023-02-17T03:01:45.870Z,101540.34
2023-02-17T03:06:49.780Z,101548.97
2023-02-17T03:11:52.027Z,101544.75
2023-02-17T03:16:54.227Z,101540.03
2023-02-17T03:21:57.529Z,101530.72
2023-02-17T03:26:58.834Z,101520.75
2023-02-17T03:32:00.609Z,101516.34
2023-02-17T03:37:01.980Z,101505.19
2023-02-17T03:42:03.318Z,101499.75
2023-02-17T03:47:04.690Z,101498.81
2023-02-17T03:52:06.017Z,101484.44
2023-02-17T03:57:07.356Z,101477.69
2023-02-17T04:02:08.695Z,101473.16
2023-02-17T04:07:10.008Z,101482.63
2023-02-17T04:12:11.341Z,101483.09
2023-02-17T04:17:12.702Z,101497.53
2023-02-17T04:22:14.031Z,101492.84
2023-02-17T04:27:15.408Z,101507.41
2023-02-17T04:32:16.707Z,101508.41
2023-02-17T04:37:18.003Z,101499.53
2023-02-17T04:42:19.362Z,101486.34
2023-02-17T04:47:20.679Z,101513.75
2023-02-17T04:52:22.021Z,101498.13
2023-02-17T04:57:23.358Z,101513.63
2023-02-17T05:02:26.905Z,101501.88
2023-02-17T05:07:28.276Z,101487.19
2023-02-17T05:12:29.628Z,101489.47
2023-02-17T05:17:30.943Z,101494.34
2023-02-17T05:22:32.320Z,101491.91
2023-02-17T05:27:33.675Z,101494.31
2023-02-17T05:32:35.045Z,101478.03
2023-02-17T05:37:36.741Z,101491.44
2023-02-17T05:42:38.064Z,101491.06
2023-02-17T05:47:39.384Z,101491.91
2023-02-17T05:52:40.820Z,101494.69
2023-02-17T05:57:42.189Z,101495.00
2023-02-17T06:02:43.575Z,101495.38
2023-02-17T06:07:45.054Z,101496.50
2023-02-17T06:12:46.487Z,101486.72
2023-02-17T06:17:47.843Z,101497.78
2023-02-17T06:22:49.169Z,101491.72
2023-02-17T06:27:50.653Z,101477.66
2023-02-17T06:32:51.985Z,101476.03
2023-02-17T06:37:53.461Z,101475.53
2023-02-17T06:42:54.800Z,101470.84
2023-02-17T06:47:56.112Z,101484.84
2023-02-17T06:52:57.433Z,101488.16
2023-02-17T06:57:58.755Z,101480.91
2023-02-17T07:03:00.158Z,101482.53
2023-02-17T07:08:01.676Z,101481.91
2023-02-17T07:13:03.283Z,101487.28
2023-02-17T07:18:04.809Z,101495.25
2023-02-17T07:23:06.574Z,101484.78
2023-02-17T07:28:08.113Z,101481.47
2023-02-17T07:33:10.066Z,101488.13
2023-02-17T07:38:11.972Z,101492.63
2023-02-17T07:43:13.288Z,101491.97
2023-02-17T07:48:14.615Z,101496.41
2023-02-17T07:53:16.031Z,101487.16
2023-02-17T07:58:17.408Z,101461.19
2023-02-17T08:03:18.718Z,101477.16
2023-02-17T08:08:38.849Z,101487.16
2023-02-17T08:13:40.313Z,101479.94
2023-02-17T08:18:41.638Z,101484.56
2023-02-17T08:23:45.171Z,101480.94
2023-02-17T08:28:46.939Z,101480.69
2023-02-17T08:33:48.676Z,101498.44
2023-02-17T08:38:51.259Z,101482.88
2023-02-17T08:43:52.682Z,101486.13
2023-02-17T08:48:54.022Z,101470.19
2023-02-17T08:53:56.773Z,101476.84
2023-02-17T08:58:58.352Z,101479.59
2023-02-17T09:04:00.275Z,101491.50
2023-02-17T09:09:01.728Z,101490.44
2023-02-17T09:14:03.234Z,101510.25
2023-02-17T09:19:04.641Z,101511.38
2023-02-17T09:24:06.283Z,101522.25
2023-02-17T09:29:07.788Z,101508.13
2023-02-17T09:34:09.159Z,101500.09
2023-02-17T09:39:13.418Z,101506.63
2023-02-17T09:44:23.494Z,101511.03
2023-02-17T09:49:26.603Z,101511.59
2023-02-17T09:54:32.150Z,101524.66
2023-02-17T09:59:39.581Z,101520.16
2023-02-17T10:04:44.371Z,101514.25
2023-02-17T10:09:49.324Z,101509.09
2023-02-17T10:15:03.716Z,101504.19
2023-02-17T10:20:08.157Z,101512.91
2023-02-17T10:25:22.528Z,101512.91
2023-02-17T10:30:32.932Z,101505.19
2023-02-17T10:35:51.453Z,101510.41
2023-02-17T10:40:54.174Z,101503.66
2023-02-17T10:45:56.962Z,101499.28
2023-02-17T10:51:00.140Z,101506.09
2023-02-17T10:56:05.664Z,101500.00
2023-02-17T11:01:08.569Z,101520.13
2023-02-17T11:06:36.361Z,101511.81
2023-02-17T11:11:37.688Z,101510.09
2023-02-17T11:16:39.086Z,101507.72
2023-02-17T11:21:43.237Z,101498.34
2023-02-17T11:26:54.586Z,101491.50
2023-02-17T11:32:00.666Z,101494.22
2023-02-17T11:37:06.064Z,101512.78
2023-02-17T11:42:23.732Z,101492.09
2023-02-17T11:47:25.058Z,101481.59
2023-02-17T11:52:40.754Z,101478.69
2023-02-17T11:58:05.384Z,101465.34
2023-02-17T12:03:20.761Z,101472.41
2023-02-17T12:08:30.991Z,101457.03
2023-02-17T12:13:55.533Z,101444.81
2023-02-17T12:19:04.071Z,101437.22
2023-02-17T12:24:05.394Z,101437.72
2023-02-17T12:29:30.943Z,101436.63
2023-02-17T12:34:40.996Z,101434.16
2023-02-17T12:40:02.583Z,101424.38
2023-02-17T12:45:05.785Z,101410.00
2023-02-17T12:50:17.441Z,101414.31
2023-02-17T12:55:24.676Z,101414.22
2023-02-17T13:00:38.766Z,101397.13
2023-02-17T13:05:58.665Z,101400.47
2023-02-17T13:11:04.993Z,101387.13
2023-02-17T13:16:08.237Z,101377.69
2023-02-17T13:21:17.745Z,101366.63
2023-02-17T13:26:21.216Z,101375.91
2023-02-17T13:31:25.001Z,101368.47
2023-02-17T13:36:32.757Z,101365.91
2023-02-17T13:41:44.387Z,101352.34
2023-02-17T13:46:46.973Z,101342.13
2023-02-17T13:51:48.483Z,101332.81
2023-02-17T13:56:50.921Z,101333.84
2023-02-17T14:01:53.032Z,101353.75
2023-02-17T14:06:56.950Z,101364.19
2023-02-17T14:11:59.131Z,101348.59
2023-02-17T14:17:09.090Z,101360.91
2023-02-17T14:22:24.922Z,101357.31
2023-02-17T14:27:26.322Z,101353.41
2023-02-17T14:32:27.695Z,101368.25
2023-02-17T14:37:31.002Z,101373.56
2023-02-17T14:42:32.362Z,101366.03
2023-02-17T14:47:33.733Z,101380.84
2023-02-17T14:52:38.798Z,101380.94
2023-02-17T14:57:40.173Z,101387.69
2023-02-17T15:02:41.598Z,101397.09
2023-02-17T15:07:42.998Z,101400.41
2023-02-17T15:12:44.557Z,101394.75
2023-02-17T15:17:46.153Z,101406.72
2023-02-17T15:22:52.580Z,101409.19
2023-02-17T15:27:53.923Z,101388.25
2023-02-17T15:32:55.271Z,101417.38
2023-02-17T15:37:57.065Z,101396.78
2023-02-17T15:43:03.502Z,101407.84
2023-02-17T15:48:07.517Z,101400.94
2023-02-17T15:53:08.841Z,101410.44
2023-02-17T15:58:13.790Z,101413.53
2023-02-17T16:03:15.265Z,101418.03
2023-02-17T16:08:18.452Z,101423.31
2023-02-17T16:13:20.154Z,101437.09
2023-02-17T16:18:22.378Z,101443.63
2023-02-17T16:23:23.756Z,101444.84
2023-02-17T16:28:25.061Z,101448.69
2023-02-17T16:33:26.448Z,101453.97
2023-02-17T16:38:27.846Z,101468.34
2023-02-17T16:43:30.847Z,101459.63
2023-02-17T16:48:34.876Z,101475.63
2023-02-17T16:53:36.203Z,101476.81
2023-02-17T16:58:37.763Z,101480.88
2023-02-17T17:03:42.533Z,101491.00
2023-02-17T17:08:43.866Z,101508.78
2023-02-17T17:13:45.880Z,101522.56
2023-02-17T17:18:47.507Z,101555.72
2023-02-17T17:23:50.762Z,101563.56
2023-02-17T17:28:52.489Z,101570.59
2023-02-17T17:33:54.834Z,101598.56
2023-02-17T17:38:57.455Z,101617.59
2023-02-17T17:43:58.842Z,101637.09
2023-02-17T17:49:00.380Z,101638.72
2023-02-17T17:54:01.738Z,101649.41
2023-02-17T17:59:04.136Z,101672.00
2023-02-17T18:04:07.912Z,101665.75
2023-02-17T18:09:12.003Z,101667.66
2023-02-17T18:14:18.743Z,101695.06
2023-02-17T18:19:20.225Z,101710.41
2023-02-17T18:24:21.594Z,101715.00
2023-02-17T18:29:22.910Z,101724.66
2023-02-17T18:34:24.583Z,101727.16
2023-02-17T18:39:26.015Z,101704.91
2023-02-17T18:44:27.334Z,101707.75
2023-02-17T18:49:29.194Z,101724.63
2023-02-17T18:54:30.660Z,101717.69
2023-02-17T18:59:32.231Z,101729.44
2023-02-17T19:04:33.718Z,101733.38
2023-02-17T19:09:37.063Z,101730.53
2023-02-17T19:14:39.016Z,101734.75
2023-02-17T19:19:40.949Z,101734.56
2023-02-17T19:24:42.637Z,101734.94
2023-02-17T19:29:44.001Z,101739.91
2023-02-17T19:34:45.328Z,101747.09
2023-02-17T19:39:46.656Z,101747.94
2023-02-17T19:44:48.050Z,101743.97
2023-02-17T19:49:49.397Z,101761.84
2023-02-17T19:54:50.831Z,101761.66
2023-02-17T19:59:52.713Z,101761.66
2023-02-17T20:04:54.071Z,101763.47
2023-02-17T20:09:55.399Z,101768.41
2023-02-17T20:14:57.254Z,101776.47
2023-02-17T20:19:59.569Z,101782.00
2023-02-17T20:25:00.997Z,101781.91
2023-02-17T20:30:02.602Z,101784.66
2023-02-17T20:35:04.226Z,101788.91
2023-02-17T20:40:06.836Z,101791.25
2023-02-17T20:45:08.341Z,101794.22
2023-02-17T20:50:12.739Z,101791.94
2023-02-17T20:55:15.313Z,101801.81
2023-02-17T21:00:18.191Z,101793.94
2023-02-17T21:05:20.589Z,101802.44
2023-02-17T21:10:23.460Z,101804.81
2023-02-17T21:15:24.887Z,101804.03
2023-02-17T21:20:26.211Z,101805.13
2023-02-17T21:25:28.118Z,101805.00
2023-02-17T21:30:29.515Z,101803.59
2023-02-17T21:35:30.916Z,101794.50
2023-02-17T21:40:32.280Z,101807.59
2023-02-17T21:45:37.302Z,101807.69
2023-02-17T21:50:38.682Z,101803.28
2023-02-17T21:55:40.545Z,101801.38
2023-02-17T22:00:42.141Z,101800.75
2023-02-17T22:05:43.483Z,101803.53
2023-02-17T22:10:44.853Z,101806.00
2023-02-17T22:15:46.174Z,101808.44
2023-02-17T22:20:47.545Z,101800.91
2023-02-17T22:25:48.913Z,101806.47
2023-02-17T22:30:51.740Z,101807.81
2023-02-17T22:35:59.665Z,101810.09
2023-02-17T22:41:04.355Z,101811.09
2023-02-17T22:46:06.419Z,101809.63
2023-02-17T22:51:09.316Z,101805.22
2023-02-17T22:56:10.711Z,101800.97
2023-02-17T23:01:16.101Z,101794.09
2023-02-17T23:06:18.340Z,101793.97
2023-02-17T23:11:41.460Z,101786.63
2023-02-17T23:16:42.880Z,101779.13
2023-02-17T23:21:45.544Z,101777.50
2023-02-17T23:26:47.537Z,101777.34
2023-02-17T23:31:48.976Z,101782.56
2023-02-17T23:36:50.481Z,101773.75
2023-02-17T23:41:51.797Z,101774.25
2023-02-17T23:46:53.125Z,101771.63
2023-02-17T23:51:54.542Z,101774.22
2023-02-17T23:56:55.892Z,101785.97
